Sutherlin, Virginia
Current Conditions -  °F | °C
As of 11:53 AM on Wednesday 22 Oct 2014 (Local Time) from KDAN Reporting Station
Clear Clear  
Wind Chill: 63°   Ceiling: Unl
Heat Index: 63°   Visibility: 10mi
Dew Point: 41°   Wind: 16mph
Humidity: 45%   Direction: 330°NNW
Pressure: 30.02"   Gusts: 25mph
Location:  36.63°N, 79.21°W
Report Text: KDAN 221553Z AUTO 33014G22KT 10SM CLR 17/05 A3002 RMK AO2 SLP160 T01720050
Loading
Personal Weather Stations






























Interactive Weather Map
Tropical Storm Tracking
New forecast layout! Learn more

10-Day Weather Forecast

Advertisements
Track Severe Weather on mobile